Allen Army Airfield Delta Junction Ft Greely US
ICAO: PABI
IATA:
Category: Medium
Scheduled Services:

Elevation: 1291 ft
TransAlt. 18000 ft.

Airport Communications:
ASOS:135.65
ATIS:132.075
TWEB:114.9
ANCHORAGE CNTR:135.3
CTAF:122.9
FAIRBANKS RDO:122.2
FORT GREELY GND:118.225
FT GREELY RANGE CON:38.3
BASE OPS:122.9
TWR:125.325

PABI Zoom In..

If you have problems with the map follow the link
https://www.worldairports.se/pages/airport.php?
ICAO=PABI

Runways:

(A) RW 01 length 9000 ft width 150 ft
---- / hdg 7

(B) RW 07 length 4077 ft width 90 ft
---- / hdg 69

(C) RW 10 length 6115 ft width 150 ft
ILS 111.10 / hdg 102

(D) RW 19 length 9000 ft width 150 ft
---- / hdg 187

(E) RW 25 length 4077 ft width 90 ft
---- / hdg 249

(F) RW 28 length 6115 ft width 150 ft
---- / hdg 282

Location; PABI
Day. 22 / Time. 09.53 Zulu
* Altimeter: 29.55
* Temperature: -19° c. 2.2°f.
* Wind from: 100° Speed 03 kn.
Dewpoint: -22° c.
Visibility: 10 Statute Miles.
Clouds: Overcast 3200 ft.

PABI 220953Z AUTO 10003KT 10SM OVC032 M19/M22 A2955 RMK AO2 SLP064 T11891217 TSNO


Wind From 100°
Speed 03 kn.

 
 
jpsmedia worldairports.se 2020   terms of use